sensor_id;sensor_type;location;lat;lon;timestamp;P1;durP1;ratioP1;P2;durP2;ratioP2
75894;SDS011;64573;50.328;15.014;2023-07-13T00:01:44;4.57;;;3.42;;
75894;SDS011;64573;50.328;15.014;2023-07-13T00:04:11;6.70;;;4.28;;
75894;SDS011;64573;50.328;15.014;2023-07-13T00:06:36;6.70;;;4.85;;
75894;SDS011;64573;50.328;15.014;2023-07-13T00:09:02;7.05;;;5.05;;
75894;SDS011;64573;50.328;15.014;2023-07-13T00:11:27;9.40;;;4.40;;
75894;SDS011;64573;50.328;15.014;2023-07-13T00:13:53;7.03;;;4.43;;
75894;SDS011;64573;50.328;15.014;2023-07-13T00:16:18;5.38;;;4.18;;
75894;SDS011;64573;50.328;15.014;2023-07-13T00:18:45;5.45;;;4.40;;
75894;SDS011;64573;50.328;15.014;2023-07-13T00:21:11;6.28;;;4.57;;
75894;SDS011;64573;50.328;15.014;2023-07-13T00:23:38;8.38;;;4.25;;
75894;SDS011;64573;50.328;15.014;2023-07-13T00:26:07;5.55;;;4.30;;
75894;SDS011;64573;50.328;15.014;2023-07-13T00:28:35;6.43;;;4.50;;
75894;SDS011;64573;50.328;15.014;2023-07-13T00:31:01;4.97;;;3.97;;
75894;SDS011;64573;50.328;15.014;2023-07-13T00:33:27;6.20;;;4.43;;
75894;SDS011;64573;50.328;15.014;2023-07-13T00:35:54;6.30;;;3.92;;
75894;SDS011;64573;50.328;15.014;2023-07-13T00:38:20;7.00;;;3.88;;
75894;SDS011;64573;50.328;15.014;2023-07-13T00:43:17;5.50;;;4.05;;
75894;SDS011;64573;50.328;15.014;2023-07-13T00:48:10;5.60;;;4.13;;
75894;SDS011;64573;50.328;15.014;2023-07-13T00:50:39;5.47;;;4.38;;
75894;SDS011;64573;50.328;15.014;2023-07-13T00:53:06;6.57;;;4.80;;
75894;SDS011;64573;50.328;15.014;2023-07-13T00:55:32;6.05;;;4.60;;
75894;SDS011;64573;50.328;15.014;2023-07-13T00:57:58;8.38;;;4.70;;
75894;SDS011;64573;50.328;15.014;2023-07-13T01:00:24;8.20;;;4.20;;
75894;SDS011;64573;50.328;15.014;2023-07-13T01:02:52;6.32;;;4.22;;
75894;SDS011;64573;50.328;15.014;2023-07-13T01:05:20;5.72;;;4.03;;
75894;SDS011;64573;50.328;15.014;2023-07-13T01:07:47;8.07;;;4.50;;
75894;SDS011;64573;50.328;15.014;2023-07-13T01:13:06;6.50;;;4.10;;
75894;SDS011;64573;50.328;15.014;2023-07-13T01:18:00;6.57;;;4.30;;
75894;SDS011;64573;50.328;15.014;2023-07-13T01:20:26;7.07;;;4.55;;
75894;SDS011;64573;50.328;15.014;2023-07-13T01:22:51;6.03;;;4.53;;
75894;SDS011;64573;50.328;15.014;2023-07-13T01:25:18;9.77;;;4.65;;
75894;SDS011;64573;50.328;15.014;2023-07-13T01:27:44;6.93;;;4.47;;
75894;SDS011;64573;50.328;15.014;2023-07-13T01:30:09;8.38;;;4.07;;
75894;SDS011;64573;50.328;15.014;2023-07-13T01:32:35;5.97;;;4.75;;
75894;SDS011;64573;50.328;15.014;2023-07-13T01:35:01;5.28;;;3.88;;
75894;SDS011;64573;50.328;15.014;2023-07-13T01:37:27;6.22;;;4.22;;
75894;SDS011;64573;50.328;15.014;2023-07-13T01:40:01;7.18;;;4.93;;
75894;SDS011;64573;50.328;15.014;2023-07-13T01:42:27;5.82;;;4.78;;
75894;SDS011;64573;50.328;15.014;2023-07-13T01:44:53;7.22;;;4.88;;
75894;SDS011;64573;50.328;15.014;2023-07-13T01:47:18;7.03;;;5.38;;
75894;SDS011;64573;50.328;15.014;2023-07-13T01:49:43;7.63;;;5.90;;
75894;SDS011;64573;50.328;15.014;2023-07-13T01:52:11;10.07;;;6.70;;
75894;SDS011;64573;50.328;15.014;2023-07-13T01:54:36;8.13;;;6.05;;
75894;SDS011;64573;50.328;15.014;2023-07-13T01:57:01;6.75;;;5.93;;
75894;SDS011;64573;50.328;15.014;2023-07-13T01:59:28;8.25;;;5.68;;
75894;SDS011;64573;50.328;15.014;2023-07-13T02:01:53;6.93;;;5.35;;
75894;SDS011;64573;50.328;15.014;2023-07-13T02:04:19;10.45;;;5.68;;
75894;SDS011;64573;50.328;15.014;2023-07-13T02:06:44;9.52;;;5.47;;
75894;SDS011;64573;50.328;15.014;2023-07-13T02:09:09;7.28;;;5.90;;
75894;SDS011;64573;50.328;15.014;2023-07-13T02:11:35;7.93;;;6.28;;
75894;SDS011;64573;50.328;15.014;2023-07-13T02:14:00;6.32;;;5.65;;
75894;SDS011;64573;50.328;15.014;2023-07-13T02:16:29;6.97;;;5.32;;
75894;SDS011;64573;50.328;15.014;2023-07-13T02:18:55;10.82;;;5.72;;
75894;SDS011;64573;50.328;15.014;2023-07-13T02:21:21;9.23;;;6.07;;
75894;SDS011;64573;50.328;15.014;2023-07-13T02:23:48;10.75;;;6.47;;
75894;SDS011;64573;50.328;15.014;2023-07-13T02:26:14;7.78;;;6.25;;
75894;SDS011;64573;50.328;15.014;2023-07-13T02:28:39;7.60;;;6.00;;
75894;SDS011;64573;50.328;15.014;2023-07-13T02:31:06;7.68;;;5.57;;
75894;SDS011;64573;50.328;15.014;2023-07-13T02:33:32;8.77;;;5.72;;
75894;SDS011;64573;50.328;15.014;2023-07-13T02:35:57;7.53;;;6.22;;
75894;SDS011;64573;50.328;15.014;2023-07-13T02:38:23;8.85;;;6.03;;
75894;SDS011;64573;50.328;15.014;2023-07-13T02:40:48;12.88;;;5.82;;
75894;SDS011;64573;50.328;15.014;2023-07-13T02:43:13;8.80;;;5.53;;
75894;SDS011;64573;50.328;15.014;2023-07-13T02:45:43;10.63;;;5.90;;
75894;SDS011;64573;50.328;15.014;2023-07-13T02:48:08;6.88;;;5.00;;
75894;SDS011;64573;50.328;15.014;2023-07-13T02:50:34;10.35;;;6.28;;
75894;SDS011;64573;50.328;15.014;2023-07-13T02:52:59;11.30;;;6.30;;
75894;SDS011;64573;50.328;15.014;2023-07-13T02:55:24;8.07;;;6.50;;
75894;SDS011;64573;50.328;15.014;2023-07-13T02:57:50;8.52;;;6.70;;
75894;SDS011;64573;50.328;15.014;2023-07-13T03:00:15;9.57;;;7.20;;
75894;SDS011;64573;50.328;15.014;2023-07-13T03:02:41;10.90;;;7.75;;
75894;SDS011;64573;50.328;15.014;2023-07-13T03:05:06;10.45;;;7.03;;
75894;SDS011;64573;50.328;15.014;2023-07-13T03:07:32;8.93;;;5.47;;
75894;SDS011;64573;50.328;15.014;2023-07-13T03:09:58;7.22;;;5.40;;
75894;SDS011;64573;50.328;15.014;2023-07-13T03:12:24;9.38;;;5.53;;
75894;SDS011;64573;50.328;15.014;2023-07-13T03:14:50;8.30;;;5.13;;
75894;SDS011;64573;50.328;15.014;2023-07-13T03:17:15;9.23;;;5.60;;
75894;SDS011;64573;50.328;15.014;2023-07-13T03:19:41;7.65;;;5.13;;
75894;SDS011;64573;50.328;15.014;2023-07-13T03:22:06;6.82;;;5.28;;
75894;SDS011;64573;50.328;15.014;2023-07-13T03:24:33;7.93;;;5.35;;
75894;SDS011;64573;50.328;15.014;2023-07-13T03:27:00;5.85;;;4.70;;
75894;SDS011;64573;50.328;15.014;2023-07-13T03:29:26;10.75;;;5.40;;
75894;SDS011;64573;50.328;15.014;2023-07-13T03:31:52;9.07;;;5.25;;
75894;SDS011;64573;50.328;15.014;2023-07-13T03:34:17;9.70;;;5.30;;
75894;SDS011;64573;50.328;15.014;2023-07-13T03:36:42;6.65;;;4.78;;
75894;SDS011;64573;50.328;15.014;2023-07-13T03:39:08;6.72;;;5.55;;
75894;SDS011;64573;50.328;15.014;2023-07-13T03:41:34;7.78;;;4.55;;
75894;SDS011;64573;50.328;15.014;2023-07-13T03:43:59;8.20;;;5.22;;
75894;SDS011;64573;50.328;15.014;2023-07-13T03:46:24;6.03;;;4.85;;
75894;SDS011;64573;50.328;15.014;2023-07-13T03:48:50;6.28;;;4.82;;
75894;SDS011;64573;50.328;15.014;2023-07-13T03:51:16;5.95;;;4.55;;
75894;SDS011;64573;50.328;15.014;2023-07-13T03:53:43;11.93;;;4.13;;
75894;SDS011;64573;50.328;15.014;2023-07-13T03:56:10;12.80;;;4.53;;
75894;SDS011;64573;50.328;15.014;2023-07-13T03:58:39;7.25;;;4.00;;
75894;SDS011;64573;50.328;15.014;2023-07-13T04:01:05;7.35;;;4.32;;
75894;SDS011;64573;50.328;15.014;2023-07-13T04:03:32;4.88;;;4.15;;
75894;SDS011;64573;50.328;15.014;2023-07-13T04:05:59;7.15;;;4.15;;
75894;SDS011;64573;50.328;15.014;2023-07-13T04:08:35;4.75;;;3.50;;
75894;SDS011;64573;50.328;15.014;2023-07-13T04:11:02;4.10;;;3.40;;
75894;SDS011;64573;50.328;15.014;2023-07-13T04:13:28;7.78;;;4.10;;
75894;SDS011;64573;50.328;15.014;2023-07-13T04:15:54;4.78;;;3.90;;
75894;SDS011;64573;50.328;15.014;2023-07-13T04:18:20;7.68;;;4.13;;
75894;SDS011;64573;50.328;15.014;2023-07-13T04:20:46;5.55;;;4.57;;
75894;SDS011;64573;50.328;15.014;2023-07-13T04:23:12;5.90;;;4.85;;
75894;SDS011;64573;50.328;15.014;2023-07-13T04:25:38;8.90;;;4.22;;
75894;SDS011;64573;50.328;15.014;2023-07-13T04:28:04;4.00;;;2.92;;
75894;SDS011;64573;50.328;15.014;2023-07-13T04:30:30;5.50;;;2.55;;
75894;SDS011;64573;50.328;15.014;2023-07-13T04:32:55;6.47;;;2.30;;
75894;SDS011;64573;50.328;15.014;2023-07-13T04:35:21;7.03;;;2.05;;
75894;SDS011;64573;50.328;15.014;2023-07-13T04:37:47;5.35;;;2.00;;
75894;SDS011;64573;50.328;15.014;2023-07-13T04:40:15;3.45;;;1.90;;
75894;SDS011;64573;50.328;15.014;2023-07-13T04:42:44;3.17;;;2.10;;
75894;SDS011;64573;50.328;15.014;2023-07-13T04:45:11;3.13;;;2.20;;
75894;SDS011;64573;50.328;15.014;2023-07-13T04:47:37;3.13;;;2.00;;
75894;SDS011;64573;50.328;15.014;2023-07-13T04:50:03;4.28;;;1.90;;
75894;SDS011;64573;50.328;15.014;2023-07-13T04:52:29;4.50;;;2.00;;
75894;SDS011;64573;50.328;15.014;2023-07-13T04:54:55;4.88;;;2.20;;
75894;SDS011;64573;50.328;15.014;2023-07-13T04:57:20;2.63;;;2.08;;
75894;SDS011;64573;50.328;15.014;2023-07-13T04:59:45;5.90;;;2.10;;
75894;SDS011;64573;50.328;15.014;2023-07-13T05:02:11;3.53;;;2.22;;
75894;SDS011;64573;50.328;15.014;2023-07-13T05:04:36;5.90;;;2.20;;
75894;SDS011;64573;50.328;15.014;2023-07-13T05:07:01;3.03;;;2.05;;
75894;SDS011;64573;50.328;15.014;2023-07-13T05:09:27;5.25;;;2.00;;
75894;SDS011;64573;50.328;15.014;2023-07-13T05:11:52;5.57;;;2.10;;
75894;SDS011;64573;50.328;15.014;2023-07-13T05:14:17;4.30;;;2.33;;
75894;SDS011;64573;50.328;15.014;2023-07-13T05:16:43;5.20;;;2.13;;
75894;SDS011;64573;50.328;15.014;2023-07-13T05:19:08;4.60;;;2.42;;
75894;SDS011;64573;50.328;15.014;2023-07-13T05:21:34;5.20;;;2.30;;
75894;SDS011;64573;50.328;15.014;2023-07-13T05:24:00;6.55;;;2.20;;
75894;SDS011;64573;50.328;15.014;2023-07-13T05:26:25;2.83;;;2.10;;
75894;SDS011;64573;50.328;15.014;2023-07-13T05:28:51;4.95;;;2.40;;
75894;SDS011;64573;50.328;15.014;2023-07-13T05:31:16;4.45;;;2.42;;
75894;SDS011;64573;50.328;15.014;2023-07-13T05:33:42;5.45;;;2.80;;
75894;SDS011;64573;50.328;15.014;2023-07-13T05:36:07;7.10;;;2.58;;
75894;SDS011;64573;50.328;15.014;2023-07-13T05:38:33;7.53;;;2.80;;
75894;SDS011;64573;50.328;15.014;2023-07-13T05:40:58;3.45;;;2.30;;
75894;SDS011;64573;50.328;15.014;2023-07-13T05:43:23;8.02;;;2.40;;
75894;SDS011;64573;50.328;15.014;2023-07-13T05:45:50;2.78;;;2.17;;
75894;SDS011;64573;50.328;15.014;2023-07-13T05:48:18;2.80;;;2.10;;
75894;SDS011;64573;50.328;15.014;2023-07-13T05:50:43;5.72;;;2.45;;
75894;SDS011;64573;50.328;15.014;2023-07-13T05:53:08;5.15;;;2.50;;
75894;SDS011;64573;50.328;15.014;2023-07-13T05:55:34;4.15;;;2.33;;
75894;SDS011;64573;50.328;15.014;2023-07-13T05:58:00;4.28;;;2.53;;
75894;SDS011;64573;50.328;15.014;2023-07-13T06:00:26;3.63;;;2.45;;
75894;SDS011;64573;50.328;15.014;2023-07-13T06:02:51;3.83;;;2.28;;
75894;SDS011;64573;50.328;15.014;2023-07-13T06:05:17;3.70;;;2.28;;
75894;SDS011;64573;50.328;15.014;2023-07-13T06:07:42;6.15;;;2.92;;
75894;SDS011;64573;50.328;15.014;2023-07-13T06:10:08;7.38;;;2.22;;
75894;SDS011;64573;50.328;15.014;2023-07-13T06:12:33;6.15;;;2.50;;
75894;SDS011;64573;50.328;15.014;2023-07-13T06:14:59;5.30;;;2.40;;
75894;SDS011;64573;50.328;15.014;2023-07-13T06:17:24;4.43;;;1.98;;
75894;SDS011;64573;50.328;15.014;2023-07-13T06:19:50;3.70;;;2.17;;
75894;SDS011;64573;50.328;15.014;2023-07-13T06:22:15;5.15;;;2.30;;
75894;SDS011;64573;50.328;15.014;2023-07-13T06:24:40;3.58;;;2.08;;
75894;SDS011;64573;50.328;15.014;2023-07-13T06:27:06;3.83;;;2.40;;
75894;SDS011;64573;50.328;15.014;2023-07-13T06:29:31;2.25;;;1.90;;
75894;SDS011;64573;50.328;15.014;2023-07-13T06:31:56;3.63;;;2.10;;
75894;SDS011;64573;50.328;15.014;2023-07-13T06:34:22;4.78;;;1.90;;
75894;SDS011;64573;50.328;15.014;2023-07-13T06:36:47;3.05;;;2.00;;
75894;SDS011;64573;50.328;15.014;2023-07-13T06:39:12;3.90;;;2.00;;
75894;SDS011;64573;50.328;15.014;2023-07-13T06:41:38;2.45;;;1.67;;
75894;SDS011;64573;50.328;15.014;2023-07-13T06:44:04;3.88;;;1.70;;
75894;SDS011;64573;50.328;15.014;2023-07-13T06:46:29;2.83;;;1.50;;
75894;SDS011;64573;50.328;15.014;2023-07-13T06:48:55;2.95;;;1.48;;
75894;SDS011;64573;50.328;15.014;2023-07-13T06:51:21;4.07;;;1.60;;
75894;SDS011;64573;50.328;15.014;2023-07-13T06:53:46;2.20;;;1.63;;
75894;SDS011;64573;50.328;15.014;2023-07-13T06:56:12;5.38;;;2.03;;
75894;SDS011;64573;50.328;15.014;2023-07-13T06:58:37;2.97;;;1.60;;
75894;SDS011;64573;50.328;15.014;2023-07-13T07:01:03;2.45;;;1.70;;
75894;SDS011;64573;50.328;15.014;2023-07-13T07:03:30;2.72;;;1.55;;
75894;SDS011;64573;50.328;15.014;2023-07-13T07:06:28;6.53;;;1.80;;
75894;SDS011;64573;50.328;15.014;2023-07-13T07:08:50;2.42;;;1.52;;
75894;SDS011;64573;50.328;15.014;2023-07-13T07:11:18;5.38;;;1.60;;
75894;SDS011;64573;50.328;15.014;2023-07-13T07:13:47;2.50;;;1.50;;
75894;SDS011;64573;50.328;15.014;2023-07-13T07:16:13;2.00;;;1.40;;
75894;SDS011;64573;50.328;15.014;2023-07-13T07:18:39;2.58;;;1.48;;
75894;SDS011;64573;50.328;15.014;2023-07-13T07:21:04;1.90;;;1.42;;
75894;SDS011;64573;50.328;15.014;2023-07-13T07:23:29;3.33;;;1.30;;
75894;SDS011;64573;50.328;15.014;2023-07-13T07:25:55;2.72;;;1.75;;
75894;SDS011;64573;50.328;15.014;2023-07-13T07:28:20;2.40;;;1.90;;
75894;SDS011;64573;50.328;15.014;2023-07-13T07:30:46;2.55;;;1.52;;
75894;SDS011;64573;50.328;15.014;2023-07-13T07:33:13;2.20;;;1.52;;
75894;SDS011;64573;50.328;15.014;2023-07-13T07:35:39;2.08;;;1.50;;
75894;SDS011;64573;50.328;15.014;2023-07-13T07:38:05;3.53;;;1.80;;
75894;SDS011;64573;50.328;15.014;2023-07-13T07:40:31;3.58;;;1.70;;
75894;SDS011;64573;50.328;15.014;2023-07-13T07:42:56;4.88;;;1.90;;
75894;SDS011;64573;50.328;15.014;2023-07-13T07:45:22;3.40;;;1.80;;
75894;SDS011;64573;50.328;15.014;2023-07-13T07:47:48;6.55;;;2.55;;
75894;SDS011;64573;50.328;15.014;2023-07-13T07:50:14;4.13;;;2.30;;
75894;SDS011;64573;50.328;15.014;2023-07-13T07:52:39;4.43;;;2.20;;
75894;SDS011;64573;50.328;15.014;2023-07-13T07:55:06;2.63;;;2.08;;
75894;SDS011;64573;50.328;15.014;2023-07-13T08:00:01;2.67;;;1.88;;
75894;SDS011;64573;50.328;15.014;2023-07-13T08:02:26;1.73;;;1.30;;
75894;SDS011;64573;50.328;15.014;2023-07-13T08:07:21;2.25;;;1.30;;
75894;SDS011;64573;50.328;15.014;2023-07-13T08:09:46;2.00;;;1.27;;
75894;SDS011;64573;50.328;15.014;2023-07-13T08:12:12;1.90;;;1.25;;
75894;SDS011;64573;50.328;15.014;2023-07-13T08:14:37;2.10;;;1.35;;
75894;SDS011;64573;50.328;15.014;2023-07-13T08:17:03;1.55;;;1.27;;
75894;SDS011;64573;50.328;15.014;2023-07-13T08:19:29;2.92;;;1.23;;
75894;SDS011;64573;50.328;15.014;2023-07-13T08:21:54;1.60;;;1.40;;
75894;SDS011;64573;50.328;15.014;2023-07-13T08:24:21;2.60;;;1.25;;
75894;SDS011;64573;50.328;15.014;2023-07-13T08:26:48;7.40;;;1.27;;
75894;SDS011;64573;50.328;15.014;2023-07-13T08:29:14;2.42;;;1.40;;
75894;SDS011;64573;50.328;15.014;2023-07-13T08:31:39;2.25;;;1.42;;
75894;SDS011;64573;50.328;15.014;2023-07-13T08:34:04;1.53;;;1.30;;
75894;SDS011;64573;50.328;15.014;2023-07-13T08:36:30;1.77;;;1.20;;
75894;SDS011;64573;50.328;15.014;2023-07-13T08:38:55;3.05;;;1.40;;
75894;SDS011;64573;50.328;15.014;2023-07-13T08:41:20;1.70;;;1.20;;
75894;SDS011;64573;50.328;15.014;2023-07-13T08:43:51;1.83;;;1.10;;
75894;SDS011;64573;50.328;15.014;2023-07-13T08:46:24;5.35;;;1.10;;
75894;SDS011;64573;50.328;15.014;2023-07-13T08:48:53;1.60;;;1.13;;
75894;SDS011;64573;50.328;15.014;2023-07-13T08:54:07;3.33;;;1.20;;
75894;SDS011;64573;50.328;15.014;2023-07-13T08:56:43;1.92;;;1.20;;
75894;SDS011;64573;50.328;15.014;2023-07-13T08:59:12;1.50;;;1.15;;
75894;SDS011;64573;50.328;15.014;2023-07-13T09:04:49;2.53;;;1.25;;
75894;SDS011;64573;50.328;15.014;2023-07-13T09:10:30;2.35;;;1.00;;
75894;SDS011;64573;50.328;15.014;2023-07-13T09:15:29;1.30;;;1.10;;
75894;SDS011;64573;50.328;15.014;2023-07-13T09:17:57;1.67;;;1.10;;
75894;SDS011;64573;50.328;15.014;2023-07-13T09:20:34;6.45;;;1.35;;
75894;SDS011;64573;50.328;15.014;2023-07-13T09:23:04;2.20;;;1.30;;
75894;SDS011;64573;50.328;15.014;2023-07-13T09:25:33;1.50;;;1.05;;
75894;SDS011;64573;50.328;15.014;2023-07-13T09:28:22;1.90;;;1.20;;
75894;SDS011;64573;50.328;15.014;2023-07-13T09:30:51;1.98;;;1.10;;
75894;SDS011;64573;50.328;15.014;2023-07-13T09:33:29;2.15;;;1.30;;
75894;SDS011;64573;50.328;15.014;2023-07-13T09:35:56;2.15;;;1.30;;
75894;SDS011;64573;50.328;15.014;2023-07-13T09:38:24;2.65;;;1.35;;
75894;SDS011;64573;50.328;15.014;2023-07-13T09:43:25;2.17;;;1.10;;
75894;SDS011;64573;50.328;15.014;2023-07-13T09:45:51;4.25;;;1.33;;
75894;SDS011;64573;50.328;15.014;2023-07-13T09:48:17;2.33;;;1.33;;
75894;SDS011;64573;50.328;15.014;2023-07-13T09:50:43;1.60;;;1.27;;
75894;SDS011;64573;50.328;15.014;2023-07-13T09:53:13;1.35;;;1.20;;
75894;SDS011;64573;50.328;15.014;2023-07-13T09:55:44;2.42;;;1.20;;
75894;SDS011;64573;50.328;15.014;2023-07-13T09:58:12;2.78;;;1.40;;
75894;SDS011;64573;50.328;15.014;2023-07-13T10:03:24;5.32;;;1.33;;
75894;SDS011;64573;50.328;15.014;2023-07-13T10:05:52;1.80;;;1.10;;
75894;SDS011;64573;50.328;15.014;2023-07-13T10:08:18;2.28;;;1.17;;
75894;SDS011;64573;50.328;15.014;2023-07-13T10:10:51;1.98;;;1.20;;
75894;SDS011;64573;50.328;15.014;2023-07-13T10:13:31;2.38;;;1.20;;
75894;SDS011;64573;50.328;15.014;2023-07-13T10:16:00;3.30;;;1.40;;
75894;SDS011;64573;50.328;15.014;2023-07-13T10:20:58;1.77;;;1.20;;
75894;SDS011;64573;50.328;15.014;2023-07-13T10:23:35;3.47;;;1.23;;
75894;SDS011;64573;50.328;15.014;2023-07-13T10:26:00;2.63;;;1.00;;
75894;SDS011;64573;50.328;15.014;2023-07-13T10:28:29;2.20;;;1.08;;
75894;SDS011;64573;50.328;15.014;2023-07-13T10:30:58;2.05;;;1.23;;
75894;SDS011;64573;50.328;15.014;2023-07-13T10:33:25;2.63;;;1.30;;
75894;SDS011;64573;50.328;15.014;2023-07-13T10:35:54;2.15;;;1.10;;
75894;SDS011;64573;50.328;15.014;2023-07-13T10:38:37;2.58;;;1.23;;
75894;SDS011;64573;50.328;15.014;2023-07-13T10:41:03;3.83;;;1.27;;
75894;SDS011;64573;50.328;15.014;2023-07-13T10:43:36;1.77;;;0.93;;
75894;SDS011;64573;50.328;15.014;2023-07-13T10:46:12;1.88;;;1.10;;
75894;SDS011;64573;50.328;15.014;2023-07-13T10:48:40;3.22;;;1.10;;
75894;SDS011;64573;50.328;15.014;2023-07-13T10:51:09;2.28;;;1.20;;
75894;SDS011;64573;50.328;15.014;2023-07-13T10:53:37;4.75;;;1.10;;
75894;SDS011;64573;50.328;15.014;2023-07-13T10:56:06;2.33;;;1.20;;
75894;SDS011;64573;50.328;15.014;2023-07-13T10:58:47;2.22;;;1.10;;
75894;SDS011;64573;50.328;15.014;2023-07-13T11:01:48;1.25;;;1.00;;
75894;SDS011;64573;50.328;15.014;2023-07-13T11:04:18;2.60;;;1.13;;
75894;SDS011;64573;50.328;15.014;2023-07-13T11:06:45;4.05;;;1.02;;
75894;SDS011;64573;50.328;15.014;2023-07-13T11:09:19;3.92;;;1.35;;
75894;SDS011;64573;50.328;15.014;2023-07-13T11:11:55;1.65;;;1.00;;
75894;SDS011;64573;50.328;15.014;2023-07-13T11:14:34;2.03;;;1.05;;
75894;SDS011;64573;50.328;15.014;2023-07-13T11:19:41;1.83;;;1.10;;
75894;SDS011;64573;50.328;15.014;2023-07-13T11:27:22;3.03;;;1.20;;
75894;SDS011;64573;50.328;15.014;2023-07-13T11:30:07;1.77;;;1.00;;
75894;SDS011;64573;50.328;15.014;2023-07-13T11:32:51;2.15;;;1.20;;
75894;SDS011;64573;50.328;15.014;2023-07-13T11:35:32;1.42;;;1.05;;
75894;SDS011;64573;50.328;15.014;2023-07-13T11:38:01;1.67;;;0.95;;
75894;SDS011;64573;50.328;15.014;2023-07-13T11:40:28;2.05;;;0.90;;
75894;SDS011;64573;50.328;15.014;2023-07-13T11:42:59;3.25;;;0.98;;
75894;SDS011;64573;50.328;15.014;2023-07-13T11:45:26;3.22;;;1.00;;
75894;SDS011;64573;50.328;15.014;2023-07-13T11:47:53;5.38;;;1.40;;
75894;SDS011;64573;50.328;15.014;2023-07-13T11:50:19;2.55;;;1.10;;
75894;SDS011;64573;50.328;15.014;2023-07-13T11:52:46;2.55;;;1.02;;
75894;SDS011;64573;50.328;15.014;2023-07-13T11:55:15;3.28;;;1.45;;
75894;SDS011;64573;50.328;15.014;2023-07-13T12:00:18;2.47;;;1.20;;
75894;SDS011;64573;50.328;15.014;2023-07-13T12:02:48;2.65;;;1.50;;
75894;SDS011;64573;50.328;15.014;2023-07-13T12:05:18;3.55;;;1.30;;
75894;SDS011;64573;50.328;15.014;2023-07-13T12:07:45;3.05;;;1.30;;
75894;SDS011;64573;50.328;15.014;2023-07-13T12:10:18;3.03;;;1.20;;
75894;SDS011;64573;50.328;15.014;2023-07-13T12:12:57;4.05;;;1.30;;
75894;SDS011;64573;50.328;15.014;2023-07-13T12:15:43;1.98;;;1.20;;
75894;SDS011;64573;50.328;15.014;2023-07-13T12:18:21;1.92;;;1.30;;
75894;SDS011;64573;50.328;15.014;2023-07-13T12:20:49;1.23;;;0.95;;
75894;SDS011;64573;50.328;15.014;2023-07-13T12:23:22;2.63;;;1.30;;
75894;SDS011;64573;50.328;15.014;2023-07-13T12:25:50;2.50;;;1.20;;
75894;SDS011;64573;50.328;15.014;2023-07-13T12:28:29;2.90;;;1.23;;
75894;SDS011;64573;50.328;15.014;2023-07-13T12:31:01;2.85;;;1.30;;
75894;SDS011;64573;50.328;15.014;2023-07-13T12:33:28;3.13;;;1.20;;
75894;SDS011;64573;50.328;15.014;2023-07-13T12:35:56;2.25;;;1.20;;
75894;SDS011;64573;50.328;15.014;2023-07-13T12:38:24;2.28;;;1.30;;
75894;SDS011;64573;50.328;15.014;2023-07-13T12:40:50;3.70;;;1.40;;
75894;SDS011;64573;50.328;15.014;2023-07-13T12:43:17;2.90;;;1.20;;
75894;SDS011;64573;50.328;15.014;2023-07-13T12:48:16;3.20;;;1.60;;
75894;SDS011;64573;50.328;15.014;2023-07-13T12:50:43;3.20;;;1.40;;
75894;SDS011;64573;50.328;15.014;2023-07-13T12:53:13;4.47;;;1.40;;
75894;SDS011;64573;50.328;15.014;2023-07-13T12:55:47;2.17;;;1.20;;
75894;SDS011;64573;50.328;15.014;2023-07-13T12:58:17;3.83;;;1.35;;
75894;SDS011;64573;50.328;15.014;2023-07-13T13:00:51;3.00;;;1.52;;
75894;SDS011;64573;50.328;15.014;2023-07-13T13:03:24;1.98;;;1.20;;
75894;SDS011;64573;50.328;15.014;2023-07-13T13:06:02;1.85;;;1.35;;
75894;SDS011;64573;50.328;15.014;2023-07-13T13:08:28;2.17;;;1.30;;
75894;SDS011;64573;50.328;15.014;2023-07-13T13:10:55;4.68;;;1.70;;
75894;SDS011;64573;50.328;15.014;2023-07-13T13:13:20;3.35;;;1.30;;
75894;SDS011;64573;50.328;15.014;2023-07-13T13:15:46;4.53;;;1.50;;
75894;SDS011;64573;50.328;15.014;2023-07-13T13:18:16;2.88;;;1.05;;
75894;SDS011;64573;50.328;15.014;2023-07-13T13:20:42;2.97;;;1.17;;
75894;SDS011;64573;50.328;15.014;2023-07-13T13:23:14;3.33;;;1.23;;
75894;SDS011;64573;50.328;15.014;2023-07-13T13:25:43;2.80;;;1.60;;
75894;SDS011;64573;50.328;15.014;2023-07-13T13:28:15;3.22;;;1.23;;
75894;SDS011;64573;50.328;15.014;2023-07-13T13:30:43;2.92;;;1.10;;
75894;SDS011;64573;50.328;15.014;2023-07-13T13:33:10;1.50;;;1.10;;
75894;SDS011;64573;50.328;15.014;2023-07-13T13:35:37;2.63;;;1.20;;
75894;SDS011;64573;50.328;15.014;2023-07-13T13:38:07;2.97;;;1.30;;
75894;SDS011;64573;50.328;15.014;2023-07-13T13:40:35;5.37;;;1.33;;
75894;SDS011;64573;50.328;15.014;2023-07-13T13:43:01;1.77;;;1.20;;
75894;SDS011;64573;50.328;15.014;2023-07-13T13:45:26;2.67;;;1.25;;
75894;SDS011;64573;50.328;15.014;2023-07-13T13:47:51;2.33;;;1.40;;
75894;SDS011;64573;50.328;15.014;2023-07-13T13:50:21;2.78;;;1.40;;
75894;SDS011;64573;50.328;15.014;2023-07-13T13:52:49;2.78;;;1.25;;
75894;SDS011;64573;50.328;15.014;2023-07-13T13:55:17;2.22;;;1.40;;
75894;SDS011;64573;50.328;15.014;2023-07-13T13:57:47;1.70;;;1.30;;
75894;SDS011;64573;50.328;15.014;2023-07-13T14:00:13;3.25;;;1.30;;
75894;SDS011;64573;50.328;15.014;2023-07-13T14:02:42;2.55;;;1.40;;
75894;SDS011;64573;50.328;15.014;2023-07-13T14:05:13;3.90;;;1.20;;
75894;SDS011;64573;50.328;15.014;2023-07-13T14:07:39;1.85;;;0.95;;
75894;SDS011;64573;50.328;15.014;2023-07-13T14:10:10;1.58;;;1.27;;
75894;SDS011;64573;50.328;15.014;2023-07-13T14:15:05;3.00;;;1.50;;
75894;SDS011;64573;50.328;15.014;2023-07-13T14:17:31;3.05;;;1.25;;
75894;SDS011;64573;50.328;15.014;2023-07-13T14:19:57;4.45;;;1.13;;
75894;SDS011;64573;50.328;15.014;2023-07-13T14:22:24;4.80;;;1.50;;
75894;SDS011;64573;50.328;15.014;2023-07-13T14:24:53;1.88;;;1.20;;
75894;SDS011;64573;50.328;15.014;2023-07-13T14:27:19;3.78;;;1.33;;
75894;SDS011;64573;50.328;15.014;2023-07-13T14:29:46;3.28;;;1.25;;
75894;SDS011;64573;50.328;15.014;2023-07-13T14:32:11;2.70;;;1.48;;
75894;SDS011;64573;50.328;15.014;2023-07-13T14:34:38;2.42;;;1.17;;
75894;SDS011;64573;50.328;15.014;2023-07-13T14:37:03;3.38;;;1.27;;
75894;SDS011;64573;50.328;15.014;2023-07-13T14:39:29;5.38;;;1.25;;
75894;SDS011;64573;50.328;15.014;2023-07-13T14:41:55;2.25;;;1.08;;
75894;SDS011;64573;50.328;15.014;2023-07-13T14:44:24;3.65;;;1.20;;
75894;SDS011;64573;50.328;15.014;2023-07-13T14:46:51;7.57;;;1.48;;
75894;SDS011;64573;50.328;15.014;2023-07-13T14:51:57;2.92;;;1.20;;
75894;SDS011;64573;50.328;15.014;2023-07-13T14:54:24;4.60;;;1.20;;
75894;SDS011;64573;50.328;15.014;2023-07-13T14:56:49;2.47;;;1.20;;
75894;SDS011;64573;50.328;15.014;2023-07-13T14:59:15;2.10;;;1.10;;
75894;SDS011;64573;50.328;15.014;2023-07-13T15:01:42;3.60;;;1.30;;
75894;SDS011;64573;50.328;15.014;2023-07-13T15:04:07;4.13;;;1.20;;
75894;SDS011;64573;50.328;15.014;2023-07-13T15:09:22;1.35;;;1.20;;
75894;SDS011;64573;50.328;15.014;2023-07-13T15:11:50;2.78;;;1.27;;
75894;SDS011;64573;50.328;15.014;2023-07-13T15:14:16;2.30;;;1.40;;
75894;SDS011;64573;50.328;15.014;2023-07-13T15:16:49;2.42;;;1.30;;
75894;SDS011;64573;50.328;15.014;2023-07-13T15:19:17;3.47;;;1.10;;
75894;SDS011;64573;50.328;15.014;2023-07-13T15:21:43;1.67;;;1.10;;
75894;SDS011;64573;50.328;15.014;2023-07-13T15:24:10;2.45;;;1.10;;
75894;SDS011;64573;50.328;15.014;2023-07-13T15:26:36;3.70;;;1.10;;
75894;SDS011;64573;50.328;15.014;2023-07-13T15:29:02;2.72;;;1.60;;
75894;SDS011;64573;50.328;15.014;2023-07-13T15:31:28;2.17;;;1.23;;